Time;durP1;ratioP1;P1;durP2;ratioP2;P2;SDS_P1;SDS_P2;PMS_P1;PMS_P2;Temp;Humidity;BMP_temperature;BMP_pressure;BME280_temperature;BME280_humidity;BME280_pressure;Samples;Min_cycle;Max_cycle;Signal;HPM_P1;HPM_P2
2023/02/11 00:00:27;;;;;;;7.88;2.38;;;27.00;65.10;;;;;;4126871;28;20128;-44
2023/02/11 00:02:49;;;;;;;3.53;2.08;;;27.10;65.10;;;;;;4131503;28;20144;-44
2023/02/11 00:05:12;;;;;;;3.28;2.20;;;27.10;65.00;;;;;;4132266;28;20057;-45
2023/02/11 00:07:35;;;;;;;4.60;2.10;;;27.10;64.90;;;;;;4133717;28;20026;-46
2023/02/11 00:09:57;;;;;;;2.63;1.80;;;27.10;64.80;;;;;;4129137;28;20049;-43
2023/02/11 00:12:20;;;;;;;3.03;1.87;;;27.20;64.80;;;;;;4132947;28;20034;-43
2023/02/11 00:14:42;;;;;;;3.63;2.58;;;27.20;64.70;;;;;;4129698;28;20133;-43
2023/02/11 00:17:05;;;;;;;3.40;2.20;;;27.20;64.70;;;;;;4129293;28;20686;-44
2023/02/11 00:19:27;;;;;;;2.88;1.98;;;27.30;65.30;;;;;;4129869;28;20038;-50
2023/02/11 00:21:50;;;;;;;2.17;1.80;;;27.30;64.70;;;;;;4127015;28;20044;-44
2023/02/11 00:24:12;;;;;;;3.38;2.15;;;27.30;64.60;;;;;;4131125;28;20429;-43
2023/02/11 00:26:35;;;;;;;2.78;2.03;;;27.30;64.60;;;;;;4127515;28;20065;-42
2023/02/11 00:28:59;;;;;;;4.18;2.00;;;27.30;64.60;;;;;;4133726;28;20203;-43
2023/02/11 00:31:22;;;;;;;2.55;2.00;;;27.40;64.60;;;;;;4130833;28;20099;-46
2023/02/11 00:33:45;;;;;;;2.97;2.33;;;27.40;64.90;;;;;;4134707;28;20044;-44
2023/02/11 00:36:12;;;;;;;2.97;2.30;;;27.40;64.70;;;;;;4133648;28;20041;-44
2023/02/11 00:38:34;;;;;;;4.00;2.28;;;27.40;64.80;;;;;;4131412;28;20065;-43
2023/02/11 00:40:57;;;;;;;3.20;2.42;;;27.40;64.70;;;;;;4138634;28;20538;-46
2023/02/11 00:43:19;;;;;;;3.20;2.38;;;27.50;64.60;;;;;;4128396;28;20057;-41
2023/02/11 00:45:42;;;;;;;3.78;2.47;;;27.50;64.60;;;;;;4130872;28;20042;-44
2023/02/11 00:48:04;;;;;;;7.78;2.67;;;27.50;64.90;;;;;;4132522;28;20038;-48
2023/02/11 00:50:26;;;;;;;6.03;2.40;;;27.50;65.20;;;;;;4132482;28;20123;-44
2023/02/11 00:52:49;;;;;;;6.63;2.80;;;27.60;65.30;;;;;;4134635;28;20492;-47
2023/02/11 00:55:12;;;;;;;8.02;2.78;;;27.60;64.90;;;;;;4135239;28;20124;-42
2023/02/11 00:57:34;;;;;;;3.20;2.20;;;27.70;64.70;;;;;;4133341;28;20033;-45
2023/02/11 00:59:57;;;;;;;4.53;2.58;;;27.80;64.30;;;;;;4131250;28;20053;-45
2023/02/11 01:02:19;;;;;;;3.22;2.55;;;27.80;63.90;;;;;;4136329;28;20042;-45
2023/02/11 01:04:42;;;;;;;4.03;2.53;;;27.90;63.70;;;;;;4139231;28;20124;-43
2023/02/11 01:07:04;;;;;;;4.77;3.00;;;27.90;63.50;;;;;;4137039;28;20046;-42
2023/02/11 01:09:27;;;;;;;2.83;2.40;;;27.90;63.30;;;;;;4138501;28;20107;-46
2023/02/11 01:11:49;;;;;;;5.00;2.40;;;28.00;63.20;;;;;;4136069;28;20289;-43
2023/02/11 01:14:11;;;;;;;3.03;2.33;;;28.00;63.00;;;;;;4139135;28;20046;-42
2023/02/11 01:16:34;;;;;;;4.13;2.67;;;28.10;62.90;;;;;;4139677;28;20500;-43
2023/02/11 01:18:57;;;;;;;4.43;2.30;;;28.10;62.80;;;;;;4140668;28;20124;-43
2023/02/11 01:21:20;;;;;;;3.38;3.03;;;28.10;62.60;;;;;;4140061;28;20585;-44
2023/02/11 01:23:42;;;;;;;3.28;2.45;;;28.20;62.50;;;;;;4139170;28;20044;-45
2023/02/11 01:26:05;;;;;;;3.78;2.70;;;28.20;62.50;;;;;;4139536;28;20052;-44
2023/02/11 01:28:29;;;;;;;3.90;2.65;;;28.20;62.40;;;;;;4138045;28;20058;-47
2023/02/11 01:30:52;;;;;;;2.78;2.17;;;28.30;62.30;;;;;;4139531;28;20045;-45
2023/02/11 01:33:15;;;;;;;3.40;2.33;;;28.30;62.20;;;;;;4137966;28;20033;-46
2023/02/11 01:35:39;;;;;;;3.53;2.58;;;28.30;62.10;;;;;;4135258;28;20054;-44
2023/02/11 01:38:01;;;;;;;2.80;2.30;;;28.30;62.00;;;;;;4136699;28;20038;-48
2023/02/11 01:40:24;;;;;;;4.80;2.90;;;28.40;62.00;;;;;;4137249;28;20401;-43
2023/02/11 01:42:46;;;;;;;3.88;2.55;;;28.40;61.90;;;;;;4138714;28;20074;-45
2023/02/11 01:45:49;;;;;;;3.67;2.40;;;28.50;61.90;;;;;;4140939;28;20521;-45
2023/02/11 01:48:36;;;;;;;2.95;2.60;;;28.50;61.70;;;;;;4132476;28;20057;-43
2023/02/11 01:51:27;;;;;;;2.95;2.28;;;28.50;61.70;;;;;;4139077;28;20037;-43
2023/02/11 01:59:31;;;;;;;2.88;2.10;;;28.60;61.40;;;;;;4137542;28;20053;-43
2023/02/11 02:02:00;;;;;;;2.47;2.10;;;28.70;61.40;;;;;;4137022;28;20547;-47
2023/02/11 02:04:30;;;;;;;3.35;2.30;;;28.70;61.30;;;;;;4137542;28;20423;-45
2023/02/11 02:06:59;;;;;;;2.42;2.15;;;28.70;61.20;;;;;;4136202;28;20042;-46
2023/02/11 02:09:28;;;;;;;3.30;2.38;;;28.80;61.20;;;;;;4135490;28;20042;-42
2023/02/11 02:11:51;;;;;;;2.22;1.90;;;28.90;61.20;;;;;;4138885;28;20042;-43
2023/02/11 02:14:14;;;;;;;2.90;2.00;;;28.90;61.00;;;;;;4134039;28;20037;-45
2023/02/11 02:16:37;;;;;;;3.17;2.05;;;28.90;61.60;;;;;;4134062;28;20143;-45
2023/02/11 02:19:30;;;;;;;1.88;1.73;;;28.90;60.90;;;;;;4132457;28;20042;-47
2023/02/11 02:22:04;;;;;;;2.42;1.80;;;29.00;60.90;;;;;;4135382;28;20073;-43
2023/02/11 02:24:50;;;;;;;2.33;1.95;;;29.00;60.80;;;;;;4131460;28;20347;-44
2023/02/11 02:27:29;;;;;;;2.38;2.00;;;29.00;60.70;;;;;;4133635;28;20047;-45
2023/02/11 02:30:21;;;;;;;2.85;2.10;;;29.10;60.60;;;;;;4131601;28;20468;-43
2023/02/11 02:33:14;;;;;;;2.65;2.15;;;29.10;60.50;;;;;;4135540;28;20252;-47
2023/02/11 02:35:47;;;;;;;2.85;2.10;;;29.10;60.40;;;;;;4132432;28;20042;-46
2023/02/11 02:38:34;;;;;;;4.05;2.42;;;29.20;60.30;;;;;;4134676;28;20409;-49
2023/02/11 02:41:06;;;;;;;2.63;1.90;;;29.20;60.20;;;;;;4135697;28;20033;-47
2023/02/11 02:43:29;;;;;;;2.20;2.00;;;29.20;60.30;;;;;;4129965;28;20168;-49
2023/02/11 02:45:51;;;;;;;;;;;29.30;60.30;;;;;;4129776;28;20049;-45
2023/02/11 02:48:36;;;;;;;3.30;1.90;;;29.30;60.20;;;;;;4130865;28;19936;-48
2023/02/11 02:51:21;;;;;;;2.22;1.92;;;29.40;60.10;;;;;;4132508;28;20045;-44
2023/02/11 02:54:06;;;;;;;3.13;2.40;;;29.40;60.00;;;;;;4130684;28;20033;-44
2023/02/11 02:57:04;;;;;;;3.20;2.80;;;29.30;58.70;;;;;;4133284;28;20427;-43
2023/02/11 02:59:52;;;;;;;3.40;2.80;;;29.10;57.60;;;;;;4131819;28;20478;-48
2023/02/11 03:02:30;;;;;;;3.30;2.88;;;28.90;57.30;;;;;;4130563;28;20037;-43
2023/02/11 03:05:18;;;;;;;3.15;2.67;;;28.70;57.60;;;;;;4132039;28;20042;-44
2023/02/11 03:08:04;;;;;;;3.00;2.60;;;28.60;57.00;;;;;;4125423;28;20041;-43
2023/02/11 03:10:53;;;;;;;3.80;2.83;;;28.50;57.00;;;;;;4131346;28;20042;-44
2023/02/11 03:13:18;;;;;;;3.58;2.75;;;28.40;57.00;;;;;;4129580;28;20124;-46
2023/02/11 03:15:46;;;;;;;3.63;2.67;;;28.20;56.90;;;;;;4123807;28;20138;-43
2023/02/11 03:18:12;;;;;;;3.63;2.90;;;28.20;57.80;;;;;;4131618;28;20227;-44
2023/02/11 03:20:38;;;;;;;3.42;2.67;;;28.10;56.40;;;;;;4132307;28;20511;-48
2023/02/11 03:23:18;;;;;;;3.67;3.03;;;28.00;56.60;;;;;;4131466;28;20518;-47
2023/02/11 03:26:02;;;;;;;4.07;2.80;;;27.90;57.10;;;;;;4131821;28;20038;-49
2023/02/11 03:29:02;;;;;;;3.53;2.90;;;27.90;56.80;;;;;;4134857;28;20045;-48
2023/02/11 03:31:28;;;;;;;3.22;2.72;;;27.80;57.40;;;;;;4132032;28;20040;-46
2023/02/11 03:34:02;;;;;;;3.85;2.92;;;27.70;56.30;;;;;;4129121;28;20279;-50
2023/02/11 03:36:46;;;;;;;3.78;3.20;;;27.60;56.70;;;;;;4134577;28;20053;-48
2023/02/11 03:39:10;;;;;;;3.30;3.00;;;27.50;56.90;;;;;;4132352;28;20046;-47
2023/02/11 03:41:34;;;;;;;3.50;3.00;;;27.50;57.30;;;;;;4130024;28;20505;-47
2023/02/11 03:43:58;;;;;;;3.10;2.75;;;27.40;56.60;;;;;;4125287;28;20474;-47
2023/02/11 03:46:27;;;;;;;3.40;2.72;;;27.40;56.90;;;;;;4133439;28;20111;-45
2023/02/11 03:48:55;;;;;;;3.15;2.75;;;27.30;56.90;;;;;;4129854;28;20092;-50
2023/02/11 03:51:20;;;;;;;3.30;3.00;;;27.20;57.00;;;;;;4131025;28;20157;-45
2023/02/11 03:53:45;;;;;;;3.10;2.70;;;27.20;57.10;;;;;;4127019;28;20131;-49
2023/02/11 03:56:12;;;;;;;3.00;2.53;;;27.20;57.00;;;;;;4131079;28;20143;-45
2023/02/11 03:58:34;;;;;;;3.70;3.08;;;27.10;57.00;;;;;;4128215;28;20053;-46
2023/02/11 04:00:57;;;;;;;3.92;3.22;;;27.10;56.70;;;;;;4131246;28;20124;-44
2023/02/11 04:03:19;;;;;;;3.20;2.90;;;27.10;56.80;;;;;;4132553;28;20038;-46
2023/02/11 04:05:42;;;;;;;3.35;2.90;;;27.00;56.70;;;;;;4131474;28;20085;-49
2023/02/11 04:08:05;;;;;;;4.57;2.90;;;27.00;56.50;;;;;;4134551;28;20121;-47
2023/02/11 04:10:28;;;;;;;3.28;2.80;;;26.90;56.80;;;;;;4133813;28;20561;-46
2023/02/11 04:12:50;;;;;;;3.00;2.70;;;26.90;57.20;;;;;;4126320;28;20225;-49
2023/02/11 04:15:13;;;;;;;4.30;3.33;;;26.90;56.40;;;;;;4135348;28;20482;-52
2023/02/11 04:17:36;;;;;;;3.80;3.30;;;26.90;56.80;;;;;;4135875;28;20037;-44
2023/02/11 04:19:59;;;;;;;3.33;2.80;;;26.80;56.50;;;;;;4135389;28;20042;-43
2023/02/11 04:22:21;;;;;;;3.00;2.70;;;26.80;56.50;;;;;;4135876;28;20104;-43
2023/02/11 04:24:44;;;;;;;3.65;3.05;;;26.80;56.50;;;;;;4137218;28;20044;-45
2023/02/11 04:27:06;;;;;;;3.20;2.90;;;26.80;56.20;;;;;;4135549;28;20557;-49
2023/02/11 04:29:29;;;;;;;3.17;2.85;;;26.70;56.00;;;;;;4136512;28;20133;-44
2023/02/11 04:31:51;;;;;;;3.05;2.70;;;26.70;56.20;;;;;;4127283;28;21512;-46
2023/02/11 04:34:14;;;;;;;3.28;2.75;;;26.70;55.90;;;;;;4126478;28;20541;-43
2023/02/11 04:36:37;;;;;;;3.60;2.60;;;26.70;55.80;;;;;;4129230;28;20069;-44
2023/02/11 04:38:59;;;;;;;3.20;2.72;;;26.60;55.90;;;;;;4123496;28;20292;-46
2023/02/11 04:41:21;;;;;;;3.20;2.80;;;26.60;55.90;;;;;;4129558;28;20928;-50
2023/02/11 04:43:44;;;;;;;3.13;2.63;;;26.60;56.10;;;;;;4125408;28;20049;-47
2023/02/11 04:46:06;;;;;;;3.20;2.70;;;26.60;56.20;;;;;;4127240;28;20054;-50
2023/02/11 04:48:29;;;;;;;2.95;2.65;;;26.60;56.30;;;;;;4126321;28;20038;-44
2023/02/11 04:50:51;;;;;;;3.25;2.80;;;26.60;56.20;;;;;;4134145;28;20037;-44
2023/02/11 04:53:13;;;;;;;3.38;2.80;;;26.60;56.20;;;;;;4132027;28;20535;-46
2023/02/11 04:55:36;;;;;;;2.92;2.55;;;26.60;56.00;;;;;;4126964;28;20133;-44
2023/02/11 04:58:01;;;;;;;3.22;2.80;;;26.60;56.30;;;;;;4130526;28;20045;-50
2023/02/11 05:00:24;;;;;;;3.40;2.72;;;26.60;56.20;;;;;;4133356;28;20752;-45
2023/02/11 05:02:49;;;;;;;2.80;2.38;;;26.60;56.10;;;;;;4131460;28;20104;-45
2023/02/11 05:05:12;;;;;;;2.95;2.30;;;26.60;55.90;;;;;;4126394;28;20050;-50
2023/02/11 05:07:34;;;;;;;3.05;2.60;;;26.60;56.00;;;;;;4125589;28;20569;-45
2023/02/11 05:09:57;;;;;;;3.22;2.55;;;26.60;56.10;;;;;;4129958;28;20041;-44
2023/02/11 05:12:20;;;;;;;2.60;2.40;;;26.60;56.00;;;;;;4129657;28;20472;-45
2023/02/11 05:14:43;;;;;;;3.30;2.78;;;26.60;56.00;;;;;;4131337;28;20500;-47
2023/02/11 05:17:05;;;;;;;3.45;2.60;;;26.50;56.00;;;;;;4124980;28;20988;-45
2023/02/11 05:19:27;;;;;;;2.75;2.25;;;26.60;56.20;;;;;;4132298;28;20595;-44
2023/02/11 05:21:50;;;;;;;3.80;2.50;;;26.50;56.20;;;;;;4138079;28;20136;-45
2023/02/11 05:24:12;;;;;;;2.45;2.15;;;26.50;55.90;;;;;;4135406;28;20537;-45
2023/02/11 05:26:35;;;;;;;3.13;2.50;;;26.60;55.90;;;;;;4131163;28;20030;-45
2023/02/11 05:28:57;;;;;;;2.95;2.38;;;26.50;55.80;;;;;;4135190;28;20037;-47
2023/02/11 05:31:20;;;;;;;2.85;2.38;;;26.60;55.90;;;;;;4132533;28;20041;-45
2023/02/11 05:33:42;;;;;;;3.20;2.70;;;26.60;55.70;;;;;;4127899;28;20025;-49
2023/02/11 05:36:08;;;;;;;3.00;2.50;;;26.60;55.80;;;;;;4137475;28;20498;-51
2023/02/11 05:38:30;;;;;;;3.63;2.55;;;26.60;56.10;;;;;;4129429;28;20038;-48
2023/02/11 05:40:53;;;;;;;4.00;2.60;;;26.60;55.90;;;;;;4127462;28;20054;-50
2023/02/11 05:43:16;;;;;;;3.60;2.45;;;26.60;55.90;;;;;;4135179;28;20029;-45
2023/02/11 05:45:38;;;;;;;4.38;2.65;;;26.60;55.80;;;;;;4135216;28;20041;-46
2023/02/11 05:48:01;;;;;;;3.10;2.38;;;26.60;55.60;;;;;;4130147;28;20053;-47
2023/02/11 05:50:23;;;;;;;3.17;2.53;;;26.60;55.80;;;;;;4134766;28;20673;-47
2023/02/11 05:52:46;;;;;;;3.60;2.53;;;26.60;55.70;;;;;;4132417;28;20117;-46
2023/02/11 05:55:08;;;;;;;3.35;2.65;;;26.60;55.80;;;;;;4132844;28;20082;-48
2023/02/11 05:57:30;;;;;;;3.35;2.50;;;26.60;56.00;;;;;;4135459;28;20192;-48
2023/02/11 05:59:53;;;;;;;3.00;2.47;;;26.60;55.80;;;;;;4135775;28;20038;-48
2023/02/11 06:02:15;;;;;;;3.75;2.50;;;26.60;55.90;;;;;;4134042;28;20038;-47
2023/02/11 06:04:38;;;;;;;2.97;2.67;;;26.60;55.90;;;;;;4127159;28;20038;-45
2023/02/11 06:07:01;;;;;;;3.47;2.55;;;26.60;55.80;;;;;;4130698;28;20156;-45
2023/02/11 06:09:23;;;;;;;3.33;2.47;;;26.60;55.90;;;;;;4135913;28;20132;-47
2023/02/11 06:11:45;;;;;;;3.58;2.60;;;26.60;55.70;;;;;;4128838;28;20581;-45
2023/02/11 06:14:08;;;;;;;3.10;2.40;;;26.60;55.50;;;;;;4135115;28;20041;-44
2023/02/11 06:16:31;;;;;;;2.83;2.30;;;26.60;55.40;;;;;;4133619;28;20377;-47
2023/02/11 06:18:53;;;;;;;2.80;2.33;;;26.60;55.30;;;;;;4134291;28;20034;-44
2023/02/11 06:21:16;;;;;;;2.97;2.55;;;26.60;55.30;;;;;;4133391;28;20314;-43
2023/02/11 06:23:38;;;;;;;3.17;2.45;;;26.70;55.10;;;;;;4133482;28;20124;-44
2023/02/11 06:26:17;;;;;;;3.92;2.40;;;26.70;55.00;;;;;;4134701;28;20046;-43
2023/02/11 06:28:39;;;;;;;2.83;2.30;;;26.80;54.90;;;;;;4130960;28;20410;-45
2023/02/11 06:31:06;;;;;;;2.88;1.88;;;26.80;54.60;;;;;;4127905;28;20483;-51
2023/02/11 06:33:29;;;;;;;5.50;2.60;;;27.00;54.40;;;;;;4126567;28;20048;-45
2023/02/11 06:35:51;;;;;;;2.75;2.00;;;27.00;54.10;;;;;;4134136;28;20061;-45
2023/02/11 06:38:14;;;;;;;3.40;2.45;;;27.10;54.00;;;;;;4123220;28;20528;-44
2023/02/11 06:40:36;;;;;;;3.00;2.20;;;27.10;53.70;;;;;;4128647;28;20041;-43
2023/02/11 06:42:59;;;;;;;3.63;2.30;;;27.00;54.50;;;;;;4130819;28;20129;-49
2023/02/11 06:45:21;;;;;;;3.20;2.28;;;27.10;55.20;;;;;;4135367;28;20063;-44
2023/02/11 06:47:44;;;;;;;3.33;2.05;;;27.20;55.10;;;;;;4138497;28;20060;-47
2023/02/11 06:50:10;;;;;;;2.60;1.92;;;27.40;55.20;;;;;;4133370;28;20084;-46
2023/02/11 06:52:33;;;;;;;2.53;1.73;;;27.50;55.60;;;;;;4131590;28;20472;-42
2023/02/11 06:54:55;;;;;;;2.60;2.00;;;27.70;56.00;;;;;;4127424;28;20045;-42
2023/02/11 06:57:17;;;;;;;2.88;1.80;;;27.90;56.00;;;;;;4133713;28;20049;-45
2023/02/11 06:59:40;;;;;;;2.13;1.70;;;28.10;55.80;;;;;;4130938;28;20030;-48
2023/02/11 07:02:03;;;;;;;2.97;1.40;;;28.40;55.60;;;;;;4134541;28;20163;-45
2023/02/11 07:04:25;;;;;;;2.13;1.42;;;28.60;55.40;;;;;;4128870;28;20307;-43
2023/02/11 07:06:47;;;;;;;2.28;1.42;;;28.80;55.50;;;;;;4132274;28;20124;-46
2023/02/11 07:09:10;;;;;;;1.83;1.25;;;28.90;55.60;;;;;;4130968;28;20034;-44
2023/02/11 07:11:33;;;;;;;2.20;1.30;;;29.00;56.00;;;;;;4136270;28;20100;-47
2023/02/11 07:13:59;;;;;;;2.15;1.25;;;29.00;55.90;;;;;;4132604;28;20042;-44
2023/02/11 07:16:22;;;;;;;1.67;1.42;;;29.10;55.80;;;;;;4133919;28;20056;-44
2023/02/11 07:18:45;;;;;;;2.03;1.27;;;29.10;55.90;;;;;;4128923;28;20034;-47
2023/02/11 07:21:10;;;;;;;1.73;1.20;;;29.20;56.00;;;;;;4130291;28;20048;-44
2023/02/11 07:23:32;;;;;;;1.50;1.25;;;29.30;55.90;;;;;;4133936;28;20081;-44
2023/02/11 07:25:55;;;;;;;2.70;1.53;;;29.50;56.00;;;;;;4135412;28;20583;-43
2023/02/11 07:28:17;;;;;;;1.27;0.88;;;29.60;55.90;;;;;;4134211;28;20719;-44
2023/02/11 07:30:40;;;;;;;3.10;1.48;;;29.70;55.80;;;;;;4131243;28;20041;-44
2023/02/11 07:33:02;;;;;;;1.88;1.38;;;29.70;55.80;;;;;;4132843;28;20156;-48
2023/02/11 07:35:24;;;;;;;3.22;1.05;;;29.90;55.90;;;;;;4132181;28;20532;-44
2023/02/11 07:37:47;;;;;;;1.48;1.05;;;29.90;55.90;;;;;;4133550;28;20785;-49
2023/02/11 07:40:10;;;;;;;1.90;1.15;;;29.90;55.80;;;;;;4135218;28;20052;-50
2023/02/11 07:42:34;;;;;;;3.13;1.20;;;30.00;55.90;;;;;;4132554;28;20100;-49
2023/02/11 07:44:56;;;;;;;1.52;0.90;;;30.00;56.00;;;;;;4128776;28;20081;-47
2023/02/11 07:47:19;;;;;;;1.35;1.00;;;30.00;56.00;;;;;;4128887;28;20045;-46
2023/02/11 07:49:44;;;;;;;1.95;1.25;;;30.00;56.10;;;;;;4128665;28;20046;-44
2023/02/11 07:52:07;;;;;;;1.90;1.30;;;30.00;56.10;;;;;;4128131;28;21383;-50
2023/02/11 07:54:29;;;;;;;2.08;1.20;;;30.00;56.20;;;;;;4132048;28;20042;-44
2023/02/11 07:56:55;;;;;;;2.15;1.08;;;30.00;56.20;;;;;;4131636;28;20045;-45
2023/02/11 07:59:17;;;;;;;1.38;0.77;;;30.10;56.40;;;;;;4132720;28;20038;-46
2023/02/11 08:01:40;;;;;;;2.05;0.95;;;30.10;56.40;;;;;;4131892;28;20128;-44
2023/02/11 08:04:03;;;;;;;1.50;1.20;;;30.10;56.40;;;;;;4134065;28;20070;-44
2023/02/11 08:06:28;;;;;;;1.65;1.17;;;30.10;56.40;;;;;;4131470;28;20788;-45
2023/02/11 08:08:51;;;;;;;5.28;2.80;;;30.10;56.70;;;;;;4136744;28;20053;-44
2023/02/11 08:11:21;;;;;;;4.95;3.20;;;30.00;54.70;;;;;;4130372;28;20082;-46
2023/02/11 08:13:44;;;;;;;5.82;4.47;;;29.70;53.80;;;;;;4139394;28;20069;-44
2023/02/11 08:16:07;;;;;;;5.80;3.92;;;29.40;53.50;;;;;;4131383;28;20296;-44
2023/02/11 08:18:30;;;;;;;5.78;3.92;;;29.20;53.50;;;;;;4141039;28;20038;-43
2023/02/11 08:20:52;;;;;;;6.75;4.32;;;29.00;53.10;;;;;;4136483;28;20344;-46
2023/02/11 08:23:15;;;;;;;6.72;4.10;;;28.90;53.20;;;;;;4137722;28;20037;-44
2023/02/11 08:25:37;;;;;;;4.85;3.35;;;28.70;53.20;;;;;;4138768;28;20550;-47
2023/02/11 08:28:00;;;;;;;4.55;3.60;;;28.60;52.90;;;;;;4131927;28;20045;-43
2023/02/11 08:30:22;;;;;;;4.90;3.37;;;28.40;52.60;;;;;;4131324;28;20604;-49
2023/02/11 08:32:45;;;;;;;4.50;3.30;;;28.30;52.40;;;;;;4129308;28;20520;-43
2023/02/11 08:35:08;;;;;;;4.25;2.92;;;28.20;52.40;;;;;;4129449;28;20054;-44
2023/02/11 08:37:30;;;;;;;4.65;3.13;;;28.10;52.50;;;;;;4136192;28;20335;-43
2023/02/11 08:39:53;;;;;;;4.05;2.88;;;28.00;52.40;;;;;;4128600;28;20049;-43
2023/02/11 08:42:15;;;;;;;3.95;2.83;;;27.90;52.30;;;;;;4126207;28;20039;-45
2023/02/11 08:44:38;;;;;;;4.32;2.72;;;27.80;52.60;;;;;;4128996;28;20034;-44
2023/02/11 08:47:00;;;;;;;3.40;2.60;;;27.70;52.50;;;;;;4129467;28;20094;-44
2023/02/11 08:49:22;;;;;;;3.72;2.47;;;27.60;52.10;;;;;;4128113;28;20042;-48
2023/02/11 08:51:45;;;;;;;3.20;2.30;;;27.50;53.20;;;;;;4125618;28;20038;-44
2023/02/11 08:54:08;;;;;;;3.20;2.10;;;27.40;52.70;;;;;;4129007;28;20154;-46
2023/02/11 08:56:32;;;;;;;3.37;2.13;;;27.30;53.20;;;;;;4146048;28;20050;-43
2023/02/11 08:58:54;;;;;;;2.95;2.30;;;27.20;53.10;;;;;;4132225;28;20068;-43
2023/02/11 09:01:23;;;;;;;2.33;1.70;;;27.10;52.70;;;;;;4132450;28;20033;-47
2023/02/11 09:03:46;;;;;;;2.92;2.03;;;27.00;52.90;;;;;;4132273;28;20034;-43
2023/02/11 09:06:10;;;;;;;2.72;1.90;;;26.90;53.10;;;;;;4126298;28;20104;-48
2023/02/11 09:08:35;;;;;;;3.42;2.10;;;26.80;53.10;;;;;;4126783;28;20070;-44
2023/02/11 09:10:58;;;;;;;2.63;1.80;;;26.70;53.20;;;;;;4131231;28;20384;-44
2023/02/11 09:13:20;;;;;;;2.85;1.70;;;26.70;52.90;;;;;;4136613;28;20822;-49
2023/02/11 09:15:45;;;;;;;3.05;2.00;;;26.60;53.10;;;;;;4136108;28;20041;-49
2023/02/11 09:18:08;;;;;;;2.88;2.00;;;26.50;53.20;;;;;;4131980;28;20477;-43
2023/02/11 09:20:30;;;;;;;2.85;2.08;;;26.40;53.30;;;;;;4135293;28;20077;-47
2023/02/11 09:22:54;;;;;;;2.60;1.90;;;26.40;53.30;;;;;;4139886;28;20107;-44
2023/02/11 09:25:16;;;;;;;3.38;1.73;;;26.30;53.00;;;;;;4131386;28;20128;-46
2023/02/11 09:27:39;;;;;;;2.63;1.75;;;26.20;53.40;;;;;;4132588;28;20042;-44
2023/02/11 09:30:01;;;;;;;2.65;1.70;;;26.10;53.20;;;;;;4130358;28;20041;-44
2023/02/11 09:32:23;;;;;;;3.15;1.80;;;26.10;53.80;;;;;;4138488;28;20535;-50
2023/02/11 09:34:46;;;;;;;3.00;1.67;;;26.00;53.40;;;;;;4126632;28;20648;-43
2023/02/11 09:37:08;;;;;;;3.08;2.13;;;26.00;53.80;;;;;;4133502;28;20420;-44
2023/02/11 09:39:31;;;;;;;2.92;1.80;;;25.90;53.50;;;;;;4126391;28;20034;-43
2023/02/11 09:42:46;;;;;;;3.13;1.80;;;25.80;52.70;;;;;;4130792;28;20049;-46
2023/02/11 09:45:22;;;;;;;4.10;2.30;;;25.70;53.50;;;;;;4083556;28;20087;-45
2023/02/11 09:47:57;;;;;;;3.50;2.05;;;25.50;52.70;;;;;;4147007;28;20523;-47
2023/02/11 09:50:27;;;;;;;3.15;2.00;;;25.50;53.30;;;;;;4135674;28;20046;-43
2023/02/11 09:53:10;;;;;;;2.38;1.73;;;25.40;53.00;;;;;;4134215;28;20049;-44
2023/02/11 09:55:35;;;;;;;3.08;1.90;;;25.30;53.50;;;;;;4133139;28;20577;-47
2023/02/11 09:57:58;;;;;;;4.30;2.20;;;25.10;53.10;;;;;;4133621;28;20108;-48
2023/02/11 10:00:27;;;;;;;2.33;1.70;;;25.10;53.60;;;;;;4135154;28;20382;-46
2023/02/11 10:03:19;;;;;;;3.75;1.88;;;25.00;53.40;;;;;;4133627;28;20072;-44
2023/02/11 10:06:09;;;;;;;3.30;1.85;;;24.90;53.50;;;;;;4136415;28;20038;-45
2023/02/11 10:08:46;;;;;;;3.17;2.00;;;24.80;53.80;;;;;;4133592;28;20044;-43
2023/02/11 10:11:14;;;;;;;3.35;1.73;;;24.70;53.30;;;;;;4132615;28;20115;-44
2023/02/11 10:13:54;;;;;;;2.90;1.90;;;24.60;53.70;;;;;;4134306;28;20045;-44
2023/02/11 10:16:29;;;;;;;2.05;1.50;;;24.50;53.90;;;;;;4130748;28;20046;-41
2023/02/11 10:19:23;;;;;;;;;;;24.50;53.80;;;;;;4132246;28;20048;-44
2023/02/11 10:22:04;;;;;;;2.58;1.70;;;24.40;54.50;;;;;;4105095;28;19913;-43
2023/02/11 10:24:27;;;;;;;3.28;1.90;;;24.30;53.90;;;;;;4130395;28;20038;-44
2023/02/11 10:26:51;;;;;;;2.67;1.70;;;24.20;54.50;;;;;;4130468;28;20117;-45
2023/02/11 10:29:38;;;;;;;3.20;1.92;;;24.10;54.10;;;;;;4129531;28;20039;-44
2023/02/11 10:32:07;;;;;;;2.92;1.92;;;24.00;54.50;;;;;;4133026;28;20422;-44
2023/02/11 10:34:29;;;;;;;2.88;1.55;;;24.00;54.30;;;;;;4128223;28;20360;-47
2023/02/11 10:36:51;;;;;;;2.28;1.48;;;23.90;54.50;;;;;;4132898;28;20042;-43
2023/02/11 10:39:16;;;;;;;2.83;1.80;;;23.90;54.00;;;;;;4133023;28;20048;-48
2023/02/11 10:41:45;;;;;;;2.70;1.60;;;23.80;54.80;;;;;;4127822;28;20151;-45
2023/02/11 10:44:08;;;;;;;2.70;1.98;;;23.70;54.30;;;;;;4124579;28;20068;-43
2023/02/11 10:46:34;;;;;;;2.63;1.70;;;23.70;54.70;;;;;;4126473;28;20057;-43
2023/02/11 10:48:56;;;;;;;3.15;1.98;;;23.60;54.70;;;;;;4130997;28;20055;-45
2023/02/11 10:51:23;;;;;;;3.10;1.60;;;23.50;54.70;;;;;;4132618;28;20104;-46
2023/02/11 10:54:08;;;;;;;3.10;1.80;;;23.50;54.90;;;;;;4128071;28;20421;-50
2023/02/11 10:56:44;;;;;;;2.67;1.75;;;23.40;54.90;;;;;;4131807;28;20584;-49
2023/02/11 10:59:27;;;;;;;2.72;1.50;;;23.40;55.30;;;;;;4133608;28;20041;-50
2023/02/11 11:01:52;;;;;;;2.25;1.60;;;23.30;56.00;;;;;;4131239;28;20050;-50
2023/02/11 11:04:32;;;;;;;2.05;1.55;;;23.40;55.90;;;;;;4127928;28;20036;-50
2023/02/11 11:06:55;;;;;;;4.07;1.55;;;23.50;56.00;;;;;;4133008;28;20112;-44
2023/02/11 11:09:45;;;;;;;2.40;1.57;;;23.60;56.50;;;;;;4129255;28;20120;-44
2023/02/11 11:12:25;;;;;;;2.72;1.42;;;23.60;56.70;;;;;;4127981;28;20608;-50
2023/02/11 11:14:55;;;;;;;2.33;1.35;;;23.80;57.00;;;;;;4132585;28;20041;-46
2023/02/11 11:17:19;;;;;;;1.90;1.50;;;23.90;57.10;;;;;;4142475;28;20049;-42
2023/02/11 11:19:41;;;;;;;2.50;1.23;;;24.00;57.50;;;;;;4127977;28;20121;-42
2023/02/11 11:22:04;;;;;;;2.42;1.15;;;24.10;57.60;;;;;;4125269;28;21380;-43
2023/02/11 11:24:43;;;;;;;2.95;1.30;;;24.20;57.80;;;;;;4123970;28;20092;-43
2023/02/11 11:27:06;;;;;;;1.70;0.90;;;24.30;57.80;;;;;;4129328;28;20124;-48
2023/02/11 11:29:40;;;;;;;2.42;1.38;;;24.40;57.90;;;;;;4129837;28;20125;-43
2023/02/11 11:32:13;;;;;;;2.73;1.30;;;24.50;58.00;;;;;;4132497;28;20038;-44
2023/02/11 11:34:42;;;;;;;3.33;1.58;;;24.60;57.90;;;;;;4128186;28;20085;-43
2023/02/11 11:37:37;;;;;;;2.67;1.35;;;24.70;58.00;;;;;;4134521;28;20056;-45
2023/02/11 11:40:08;;;;;;;1.65;1.17;;;24.80;58.00;;;;;;4123295;28;20621;-43
2023/02/11 11:42:33;;;;;;;1.80;0.98;;;24.80;58.00;;;;;;4134791;28;20045;-41
2023/02/11 11:45:21;;;;;;;1.65;1.00;;;25.00;58.00;;;;;;4132456;28;20038;-43
2023/02/11 11:47:59;;;;;;;3.35;1.23;;;25.00;58.00;;;;;;4139208;28;20107;-47
2023/02/11 11:50:32;;;;;;;1.58;0.98;;;25.10;58.00;;;;;;4141533;28;20046;-46
2023/02/11 11:52:59;;;;;;;3.75;1.20;;;25.10;57.90;;;;;;4138977;28;20144;-49
2023/02/11 11:55:32;;;;;;;2.00;1.10;;;25.20;58.00;;;;;;4140662;28;20050;-45
2023/02/11 11:57:55;;;;;;;1.95;0.90;;;25.30;58.00;;;;;;4131776;28;20045;-47
2023/02/11 12:00:27;;;;;;;1.77;0.88;;;25.40;58.10;;;;;;4138296;28;20526;-45
2023/02/11 12:03:17;;;;;;;2.05;0.80;;;25.40;58.00;;;;;;4134087;28;20128;-43
2023/02/11 12:05:51;;;;;;;1.30;0.90;;;25.50;58.00;;;;;;4138031;28;20056;-43
2023/02/11 12:08:25;;;;;;;1.75;0.85;;;25.50;58.00;;;;;;4138227;28;20370;-42
2023/02/11 12:11:07;;;;;;;2.25;1.08;;;25.60;58.10;;;;;;4137838;28;20037;-42
2023/02/11 12:13:54;;;;;;;0.77;0.65;;;25.60;58.10;;;;;;4136564;28;20050;-41
2023/02/11 12:16:23;;;;;;;2.13;1.17;;;25.70;58.20;;;;;;4141375;28;20054;-45
2023/02/11 12:19:23;;;;;;;2.33;0.90;;;25.70;58.20;;;;;;4134852;28;20044;-44
2023/02/11 12:21:57;;;;;;;1.63;0.70;;;25.80;58.30;;;;;;4141139;28;20061;-45
2023/02/11 12:24:38;;;;;;;1.73;0.73;;;25.80;58.30;;;;;;4144827;28;20049;-42
2023/02/11 12:27:22;;;;;;;1.92;0.70;;;25.80;58.40;;;;;;4140919;28;20063;-44
2023/02/11 12:30:05;;;;;;;2.45;0.70;;;25.90;58.30;;;;;;4138232;28;20491;-47
2023/02/11 12:33:05;;;;;;;0.63;0.60;;;26.00;58.40;;;;;;4134184;28;20053;-45
2023/02/11 12:35:28;;;;;;;2.22;0.93;;;26.00;58.40;;;;;;4139237;28;20061;-42
2023/02/11 12:37:56;;;;;;;2.33;1.00;;;26.10;58.40;;;;;;4139067;28;20050;-46
2023/02/11 12:40:24;;;;;;;2.60;1.08;;;26.10;58.50;;;;;;4142407;28;20042;-47
2023/02/11 12:43:16;;;;;;;3.40;1.60;;;26.10;58.90;;;;;;4133281;28;20117;-48
2023/02/11 12:46:00;;;;;;;5.13;2.97;;;26.10;60.00;;;;;;4134048;28;20077;-49
2023/02/11 12:48:41;;;;;;;5.72;2.78;;;26.20;62.70;;;;;;4137222;28;20128;-52
2023/02/11 12:51:20;;;;;;;4.65;2.30;;;26.30;63.30;;;;;;4133807;28;20044;-50
2023/02/11 12:53:45;;;;;;;3.70;2.35;;;26.30;65.90;;;;;;4137620;28;20448;-43
2023/02/11 12:56:21;;;;;;;3.67;2.25;;;26.20;67.20;;;;;;4130481;28;20600;-52